sensor_id;sensor_type;location;lat;lon;timestamp;pressure;altitude;pressure_sealevel;temperature;humidity
50684;BME280;36654;45.042;38.994;2023-01-25T00:00:16;102527.09;;;0.40;71.17
50684;BME280;36654;45.042;38.994;2023-01-25T00:02:42;102524.50;;;0.40;71.39
50684;BME280;36654;45.042;38.994;2023-01-25T00:05:08;102529.47;;;0.37;71.32
50684;BME280;36654;45.042;38.994;2023-01-25T00:07:33;102525.28;;;0.39;71.61
50684;BME280;36654;45.042;38.994;2023-01-25T00:09:59;102519.28;;;0.40;71.48
50684;BME280;36654;45.042;38.994;2023-01-25T00:12:24;102518.38;;;0.39;71.47
50684;BME280;36654;45.042;38.994;2023-01-25T00:14:50;102469.56;;;0.16;71.60
50684;BME280;36654;45.042;38.994;2023-01-25T00:17:15;102516.44;;;0.37;71.55
50684;BME280;36654;45.042;38.994;2023-01-25T00:19:41;102494.84;;;0.28;71.35
50684;BME280;36654;45.042;38.994;2023-01-25T00:22:06;102514.38;;;0.33;71.50
50684;BME280;36654;45.042;38.994;2023-01-25T00:24:32;102511.88;;;0.34;71.51
50684;BME280;36654;45.042;38.994;2023-01-25T00:26:57;102498.06;;;0.35;71.63
50684;BME280;36654;45.042;38.994;2023-01-25T00:29:24;102503.94;;;0.33;71.34
50684;BME280;36654;45.042;38.994;2023-01-25T00:37:09;102488.81;;;0.29;71.51
50684;BME280;36654;45.042;38.994;2023-01-25T00:39:36;102494.94;;;0.29;71.74
50684;BME280;36654;45.042;38.994;2023-01-25T00:42:04;102471.38;;;0.17;71.84
50684;BME280;36654;45.042;38.994;2023-01-25T00:44:29;102490.53;;;0.28;71.51
50684;BME280;36654;45.042;38.994;2023-01-25T00:46:55;102491.94;;;0.25;71.56
50684;BME280;36654;45.042;38.994;2023-01-25T00:49:23;102488.56;;;0.26;71.76
50684;BME280;36654;45.042;38.994;2023-01-25T00:51:50;102491.94;;;0.25;71.76
50684;BME280;36654;45.042;38.994;2023-01-25T00:54:17;102480.50;;;0.23;71.99
50684;BME280;36654;45.042;38.994;2023-01-25T00:56:42;102477.78;;;0.21;71.82
50684;BME280;36654;45.042;38.994;2023-01-25T00:59:09;102443.16;;;0.02;72.03
50684;BME280;36654;45.042;38.994;2023-01-25T01:01:35;102482.59;;;0.16;71.98
50684;BME280;36654;45.042;38.994;2023-01-25T01:04:01;102479.75;;;0.13;72.14
50684;BME280;36654;45.042;38.994;2023-01-25T01:06:26;102475.06;;;0.09;72.06
50684;BME280;36654;45.042;38.994;2023-01-25T01:08:52;102475.97;;;0.10;72.18
50684;BME280;36654;45.042;38.994;2023-01-25T01:11:17;102470.50;;;0.07;72.39
50684;BME280;36654;45.042;38.994;2023-01-25T01:13:43;102467.28;;;-0.01;72.26
50684;BME280;36654;45.042;38.994;2023-01-25T01:16:10;102479.00;;;0.04;72.55
50684;BME280;36654;45.042;38.994;2023-01-25T01:18:38;102474.59;;;0.03;72.45
50684;BME280;36654;45.042;38.994;2023-01-25T01:21:05;102465.72;;;0.01;72.46
50684;BME280;36654;45.042;38.994;2023-01-25T01:23:31;102479.44;;;-0.02;72.75
50684;BME280;36654;45.042;38.994;2023-01-25T01:26:01;102467.03;;;-0.04;72.74
50684;BME280;36654;45.042;38.994;2023-01-25T01:28:31;102464.44;;;-0.04;72.63
50684;BME280;36654;45.042;38.994;2023-01-25T01:31:01;102475.41;;;-0.08;72.71
50684;BME280;36654;45.042;38.994;2023-01-25T01:33:27;102453.00;;;-0.16;72.78
50684;BME280;36654;45.042;38.994;2023-01-25T01:35:53;102461.88;;;-0.14;72.72
50684;BME280;36654;45.042;38.994;2023-01-25T01:38:18;102471.91;;;-0.19;72.92
50684;BME280;36654;45.042;38.994;2023-01-25T01:40:45;102461.25;;;-0.22;73.00
50684;BME280;36654;45.042;38.994;2023-01-25T01:43:19;102458.78;;;-0.31;73.04
50684;BME280;36654;45.042;38.994;2023-01-25T01:48:24;102470.91;;;-0.31;73.42
50684;BME280;36654;45.042;38.994;2023-01-25T01:50:57;102472.47;;;-0.33;73.62
50684;BME280;36654;45.042;38.994;2023-01-25T01:53:25;102473.13;;;-0.36;73.69
50684;BME280;36654;45.042;38.994;2023-01-25T01:55:52;102467.66;;;-0.39;73.88
50684;BME280;36654;45.042;38.994;2023-01-25T01:58:20;102475.25;;;-0.42;73.91
50684;BME280;36654;45.042;38.994;2023-01-25T02:00:47;102466.38;;;-0.44;74.13
50684;BME280;36654;45.042;38.994;2023-01-25T02:03:13;102456.88;;;-0.54;74.20
50684;BME280;36654;45.042;38.994;2023-01-25T02:09:08;102458.34;;;-0.57;74.71
50684;BME280;36654;45.042;38.994;2023-01-25T02:11:34;102463.53;;;-0.57;74.99
50684;BME280;36654;45.042;38.994;2023-01-25T02:14:02;102463.78;;;-0.54;75.00
50684;BME280;36654;45.042;38.994;2023-01-25T02:16:28;102442.03;;;-0.65;75.23
50684;BME280;36654;45.042;38.994;2023-01-25T02:18:57;102463.00;;;-0.53;75.20
50684;BME280;36654;45.042;38.994;2023-01-25T02:21:29;102473.56;;;-0.52;75.27
50684;BME280;36654;45.042;38.994;2023-01-25T02:24:25;102466.41;;;-0.54;75.42
50684;BME280;36654;45.042;38.994;2023-01-25T02:26:53;102375.03;;;-1.09;75.21
50684;BME280;36654;45.042;38.994;2023-01-25T02:29:19;102458.19;;;-0.59;75.38
50684;BME280;36654;45.042;38.994;2023-01-25T02:31:47;102460.66;;;-0.60;75.20
50684;BME280;36654;45.042;38.994;2023-01-25T02:34:17;102458.59;;;-0.64;75.26
50684;BME280;36654;45.042;38.994;2023-01-25T02:36:43;102415.13;;;-0.86;75.28
50684;BME280;36654;45.042;38.994;2023-01-25T02:39:13;102451.06;;;-0.72;75.03
50684;BME280;36654;45.042;38.994;2023-01-25T02:41:42;102461.22;;;-0.64;75.12
50684;BME280;36654;45.042;38.994;2023-01-25T02:44:14;102450.50;;;-0.68;74.99
50684;BME280;36654;45.042;38.994;2023-01-25T02:46:41;102406.53;;;-0.95;74.95
50684;BME280;36654;45.042;38.994;2023-01-25T02:49:08;102448.97;;;-0.76;74.92
50684;BME280;36654;45.042;38.994;2023-01-25T02:51:37;102460.94;;;-0.78;75.02
50684;BME280;36654;45.042;38.994;2023-01-25T02:54:05;102446.63;;;-0.83;75.36
50684;BME280;36654;45.042;38.994;2023-01-25T02:56:32;102448.47;;;-0.82;75.40
50684;BME280;36654;45.042;38.994;2023-01-25T02:58:58;102449.38;;;-0.81;75.40
50684;BME280;36654;45.042;38.994;2023-01-25T03:01:23;102456.28;;;-0.82;75.55
50684;BME280;36654;45.042;38.994;2023-01-25T03:03:49;102453.53;;;-0.83;75.44
50684;BME280;36654;45.042;38.994;2023-01-25T03:06:15;102439.06;;;-0.90;75.17
50684;BME280;36654;45.042;38.994;2023-01-25T03:08:41;102462.13;;;-0.84;75.26
50684;BME280;36654;45.042;38.994;2023-01-25T03:11:06;102455.97;;;-0.85;75.13
50684;BME280;36654;45.042;38.994;2023-01-25T03:13:33;102460.19;;;-0.87;75.12
50684;BME280;36654;45.042;38.994;2023-01-25T03:16:01;102451.06;;;-0.92;74.99
50684;BME280;36654;45.042;38.994;2023-01-25T03:18:28;102457.19;;;-0.92;74.95
50684;BME280;36654;45.042;38.994;2023-01-25T03:20:54;102468.50;;;-0.91;75.08
50684;BME280;36654;45.042;38.994;2023-01-25T03:23:20;102459.00;;;-0.91;75.22
50684;BME280;36654;45.042;38.994;2023-01-25T03:25:45;102447.66;;;-0.91;75.16
50684;BME280;36654;45.042;38.994;2023-01-25T03:28:11;102453.94;;;-0.89;75.03
50684;BME280;36654;45.042;38.994;2023-01-25T03:30:36;102452.09;;;-0.90;75.17
50684;BME280;36654;45.042;38.994;2023-01-25T03:33:02;102458.34;;;-0.88;75.07
50684;BME280;36654;45.042;38.994;2023-01-25T03:35:28;102458.09;;;-0.91;74.92
50684;BME280;36654;45.042;38.994;2023-01-25T03:37:54;102454.44;;;-0.93;74.89
50684;BME280;36654;45.042;38.994;2023-01-25T03:40:19;102442.72;;;-1.09;74.49
50684;BME280;36654;45.042;38.994;2023-01-25T03:42:45;102473.19;;;-0.97;74.63
50684;BME280;36654;45.042;38.994;2023-01-25T03:45:11;102458.22;;;-1.00;74.49
50684;BME280;36654;45.042;38.994;2023-01-25T03:47:39;102447.69;;;-1.12;74.50
50684;BME280;36654;45.042;38.994;2023-01-25T03:50:06;102447.53;;;-1.13;74.26
50684;BME280;36654;45.042;38.994;2023-01-25T03:52:59;102451.19;;;-1.11;74.18
50684;BME280;36654;45.042;38.994;2023-01-25T03:55:32;102468.75;;;-1.09;73.98
50684;BME280;36654;45.042;38.994;2023-01-25T03:57:58;102468.50;;;-1.12;73.90
50684;BME280;36654;45.042;38.994;2023-01-25T04:00:24;102455.72;;;-1.19;73.99
50684;BME280;36654;45.042;38.994;2023-01-25T04:02:49;102469.53;;;-1.20;73.97
50684;BME280;36654;45.042;38.994;2023-01-25T04:05:15;102476.41;;;-1.20;74.09
50684;BME280;36654;45.042;38.994;2023-01-25T04:07:41;102463.94;;;-1.24;74.01
50684;BME280;36654;45.042;38.994;2023-01-25T04:10:07;102467.44;;;-1.24;73.92
50684;BME280;36654;45.042;38.994;2023-01-25T04:12:33;102466.53;;;-1.24;74.05
50684;BME280;36654;45.042;38.994;2023-01-25T04:14:58;102429.16;;;-1.45;74.10
50684;BME280;36654;45.042;38.994;2023-01-25T04:17:24;102462.88;;;-1.26;74.18
50684;BME280;36654;45.042;38.994;2023-01-25T04:19:49;102469.00;;;-1.26;74.19
50684;BME280;36654;45.042;38.994;2023-01-25T04:22:15;102472.38;;;-1.27;74.06
50684;BME280;36654;45.042;38.994;2023-01-25T04:24:41;102417.19;;;-1.54;73.96
50684;BME280;36654;45.042;38.994;2023-01-25T04:27:07;102461.44;;;-1.33;74.00
50684;BME280;36654;45.042;38.994;2023-01-25T04:29:33;102470.53;;;-1.28;74.10
50684;BME280;36654;45.042;38.994;2023-01-25T04:31:59;102458.72;;;-1.35;73.80
50684;BME280;36654;45.042;38.994;2023-01-25T04:34:25;102421.34;;;-1.56;73.67
50684;BME280;36654;45.042;38.994;2023-01-25T04:36:50;102460.53;;;-1.34;73.77
50684;BME280;36654;45.042;38.994;2023-01-25T04:39:16;102464.84;;;-1.34;73.66
50684;BME280;36654;45.042;38.994;2023-01-25T04:41:42;102459.47;;;-1.36;73.73
50684;BME280;36654;45.042;38.994;2023-01-25T04:44:07;102457.03;;;-1.34;73.76
50684;BME280;36654;45.042;38.994;2023-01-25T04:46:33;102448.66;;;-1.40;73.74
50684;BME280;36654;45.042;38.994;2023-01-25T04:48:58;102462.97;;;-1.35;73.72
50684;BME280;36654;45.042;38.994;2023-01-25T04:51:24;102466.38;;;-1.36;73.81
50684;BME280;36654;45.042;38.994;2023-01-25T04:53:49;102465.22;;;-1.40;73.96
50684;BME280;36654;45.042;38.994;2023-01-25T04:56:15;102485.66;;;-1.34;74.09
50684;BME280;36654;45.042;38.994;2023-01-25T04:58:40;102465.84;;;-1.42;74.23
50684;BME280;36654;45.042;38.994;2023-01-25T05:01:06;102473.41;;;-1.35;74.31
50684;BME280;36654;45.042;38.994;2023-01-25T05:03:32;102431.47;;;-1.59;74.21
50684;BME280;36654;45.042;38.994;2023-01-25T05:05:57;102482.78;;;-1.37;74.25
50684;BME280;36654;45.042;38.994;2023-01-25T05:08:23;102470.69;;;-1.37;74.50
50684;BME280;36654;45.042;38.994;2023-01-25T05:10:50;102470.78;;;-1.35;74.29
50684;BME280;36654;45.042;38.994;2023-01-25T05:13:15;102464.56;;;-1.37;74.66
50684;BME280;36654;45.042;38.994;2023-01-25T05:15:41;102398.94;;;-1.74;74.49
50684;BME280;36654;45.042;38.994;2023-01-25T05:18:07;102469.25;;;-1.33;74.53
50684;BME280;36654;45.042;38.994;2023-01-25T05:20:33;102456.38;;;-1.42;74.65
50684;BME280;36654;45.042;38.994;2023-01-25T05:22:58;102481.75;;;-1.29;74.60
50684;BME280;36654;45.042;38.994;2023-01-25T05:25:24;102476.00;;;-1.25;74.70
50684;BME280;36654;45.042;38.994;2023-01-25T05:28:08;102485.78;;;-1.22;74.51
50684;BME280;36654;45.042;38.994;2023-01-25T05:30:34;102474.19;;;-1.26;74.50
50684;BME280;36654;45.042;38.994;2023-01-25T05:33:00;102468.59;;;-1.20;74.54
50684;BME280;36654;45.042;38.994;2023-01-25T05:35:25;102483.06;;;-1.14;74.36
50684;BME280;36654;45.042;38.994;2023-01-25T05:37:58;102479.81;;;-1.11;74.19
50684;BME280;36654;45.042;38.994;2023-01-25T05:40:24;102473.97;;;-1.09;74.29
50684;BME280;36654;45.042;38.994;2023-01-25T05:42:58;102473.06;;;-1.09;74.17
50684;BME280;36654;45.042;38.994;2023-01-25T05:45:26;102490.88;;;-1.03;74.16
50684;BME280;36654;45.042;38.994;2023-01-25T05:47:55;102469.00;;;-1.05;73.99
50684;BME280;36654;45.042;38.994;2023-01-25T05:50:22;102483.63;;;-0.97;74.01
50684;BME280;36654;45.042;38.994;2023-01-25T05:52:49;102441.69;;;-1.21;74.05
50684;BME280;36654;45.042;38.994;2023-01-25T05:55:15;102484.91;;;-0.92;74.12
50684;BME280;36654;45.042;38.994;2023-01-25T05:57:41;102487.13;;;-0.87;73.98
50684;BME280;36654;45.042;38.994;2023-01-25T06:00:07;102484.63;;;-0.85;73.89
50684;BME280;36654;45.042;38.994;2023-01-25T06:02:33;102471.91;;;-0.82;73.83
50684;BME280;36654;45.042;38.994;2023-01-25T06:04:59;102416.69;;;-1.09;73.39
50684;BME280;36654;45.042;38.994;2023-01-25T06:07:24;102479.44;;;-0.75;73.48
50684;BME280;36654;45.042;38.994;2023-01-25T06:09:50;102466.94;;;-0.69;73.45
50684;BME280;36654;45.042;38.994;2023-01-25T06:12:19;102473.28;;;-0.65;73.33
50684;BME280;36654;45.042;38.994;2023-01-25T06:14:45;102451.06;;;-0.72;72.94
50684;BME280;36654;45.042;38.994;2023-01-25T06:17:12;102475.63;;;-0.58;72.90
50684;BME280;36654;45.042;38.994;2023-01-25T06:19:37;102476.81;;;-0.54;72.79
50684;BME280;36654;45.042;38.994;2023-01-25T06:22:03;102461.19;;;-0.54;72.54
50684;BME280;36654;45.042;38.994;2023-01-25T06:24:29;102473.94;;;-0.47;72.44
50684;BME280;36654;45.042;38.994;2023-01-25T06:26:54;102477.56;;;-0.45;72.16
50684;BME280;36654;45.042;38.994;2023-01-25T06:29:20;102483.06;;;-0.42;72.23
50684;BME280;36654;45.042;38.994;2023-01-25T06:31:45;102470.13;;;-0.40;72.20
50684;BME280;36654;45.042;38.994;2023-01-25T06:34:11;102470.94;;;-0.41;72.21
50684;BME280;36654;45.042;38.994;2023-01-25T06:36:37;102478.88;;;-0.40;71.97
50684;BME280;36654;45.042;38.994;2023-01-25T06:39:03;102474.81;;;-0.36;72.07
50684;BME280;36654;45.042;38.994;2023-01-25T06:41:28;102480.44;;;-0.42;71.73
50684;BME280;36654;45.042;38.994;2023-01-25T06:43:54;102475.47;;;-0.39;71.81
50684;BME280;36654;45.042;38.994;2023-01-25T06:46:20;102470.28;;;-0.39;72.02
50684;BME280;36654;45.042;38.994;2023-01-25T06:48:46;102471.06;;;-0.40;72.08
50684;BME280;36654;45.042;38.994;2023-01-25T06:51:14;102475.22;;;-0.32;72.11
50684;BME280;36654;45.042;38.994;2023-01-25T06:53:42;102478.88;;;-0.30;72.01
50684;BME280;36654;45.042;38.994;2023-01-25T06:56:13;102483.41;;;-0.27;72.10
50684;BME280;36654;45.042;38.994;2023-01-25T06:58:39;102467.41;;;-0.32;72.13
50684;BME280;36654;45.042;38.994;2023-01-25T07:01:22;102483.25;;;-0.18;72.25
50684;BME280;36654;45.042;38.994;2023-01-25T07:03:53;102481.53;;;-0.18;72.23
50684;BME280;36654;45.042;38.994;2023-01-25T07:06:19;102490.41;;;-0.16;72.25
50684;BME280;36654;45.042;38.994;2023-01-25T07:08:45;102482.72;;;-0.14;72.18
50684;BME280;36654;45.042;38.994;2023-01-25T07:11:12;102432.75;;;-0.41;72.36
50684;BME280;36654;45.042;38.994;2023-01-25T07:13:42;102429.75;;;-0.46;72.44
50684;BME280;36654;45.042;38.994;2023-01-25T07:16:15;102489.22;;;-0.09;72.58
50684;BME280;36654;45.042;38.994;2023-01-25T07:18:41;102487.66;;;-0.07;72.79
50684;BME280;36654;45.042;38.994;2023-01-25T07:21:09;102490.75;;;-0.01;72.93
50684;BME280;36654;45.042;38.994;2023-01-25T07:23:36;102486.59;;;0.01;73.08
50684;BME280;36654;45.042;38.994;2023-01-25T07:26:03;102495.94;;;0.09;73.38
50684;BME280;36654;45.042;38.994;2023-01-25T07:28:30;102436.84;;;-0.12;73.50
50684;BME280;36654;45.042;38.994;2023-01-25T07:30:56;102467.28;;;-0.01;73.45
50684;BME280;36654;45.042;38.994;2023-01-25T07:33:27;102500.34;;;0.20;73.81
50684;BME280;36654;45.042;38.994;2023-01-25T07:35:53;102502.38;;;0.25;74.07
50684;BME280;36654;45.042;38.994;2023-01-25T07:38:19;102502.38;;;0.25;74.12
50684;BME280;36654;45.042;38.994;2023-01-25T07:40:51;102503.31;;;0.25;74.57
50684;BME280;36654;45.042;38.994;2023-01-25T07:43:17;102503.31;;;0.25;74.61
50684;BME280;36654;45.042;38.994;2023-01-25T07:45:43;102446.97;;;-0.05;74.64
50684;BME280;36654;45.042;38.994;2023-01-25T07:48:16;102486.25;;;0.18;74.97
50684;BME280;36654;45.042;38.994;2023-01-25T07:50:42;102503.13;;;0.34;75.06
50684;BME280;36654;45.042;38.994;2023-01-25T07:53:15;102494.50;;;0.35;75.26
50684;BME280;36654;45.042;38.994;2023-01-25T07:55:40;102495.03;;;0.41;75.28
50684;BME280;36654;45.042;38.994;2023-01-25T07:58:07;102493.69;;;0.46;75.17
50684;BME280;36654;45.042;38.994;2023-01-25T08:00:34;102484.81;;;0.44;75.34
50684;BME280;36654;45.042;38.994;2023-01-25T08:03:00;102494.22;;;0.42;75.22
50684;BME280;36654;45.042;38.994;2023-01-25T08:05:25;102488.47;;;0.46;75.54
50684;BME280;36654;45.042;38.994;2023-01-25T08:07:51;102472.81;;;0.46;75.74
50684;BME280;36654;45.042;38.994;2023-01-25T08:10:17;102487.59;;;0.57;75.54
50684;BME280;36654;45.042;38.994;2023-01-25T08:12:45;102463.41;;;0.48;75.28
50684;BME280;36654;45.042;38.994;2023-01-25T08:15:12;102482.66;;;0.60;74.97
50684;BME280;36654;45.042;38.994;2023-01-25T08:17:38;102469.25;;;0.56;74.74
50684;BME280;36654;45.042;38.994;2023-01-25T08:20:04;102453.06;;;0.50;74.22
50684;BME280;36654;45.042;38.994;2023-01-25T08:22:30;102479.25;;;0.61;73.96
50684;BME280;36654;45.042;38.994;2023-01-25T08:24:56;102465.41;;;0.62;73.55
50684;BME280;36654;45.042;38.994;2023-01-25T08:27:21;102474.03;;;0.61;72.93
50684;BME280;36654;45.042;38.994;2023-01-25T08:29:47;102428.75;;;0.39;72.84
50684;BME280;36654;45.042;38.994;2023-01-25T08:32:15;102455.53;;;0.58;72.80
50684;BME280;36654;45.042;38.994;2023-01-25T08:34:41;102455.97;;;0.64;72.41
50684;BME280;36654;45.042;38.994;2023-01-25T08:37:07;102450.09;;;0.67;72.34
50684;BME280;36654;45.042;38.994;2023-01-25T08:39:32;102440.47;;;0.66;72.30
50684;BME280;36654;45.042;38.994;2023-01-25T08:41:58;102454.34;;;0.77;71.93
50684;BME280;36654;45.042;38.994;2023-01-25T08:44:24;102431.28;;;0.71;71.79
50684;BME280;36654;45.042;38.994;2023-01-25T08:46:50;102433.13;;;0.84;71.62
50684;BME280;36654;45.042;38.994;2023-01-25T08:49:16;102456.03;;;0.98;71.55
50684;BME280;36654;45.042;38.994;2023-01-25T08:51:42;102426.25;;;0.96;71.45
50684;BME280;36654;45.042;38.994;2023-01-25T08:54:10;102450.16;;;1.13;71.19
50684;BME280;36654;45.042;38.994;2023-01-25T08:56:37;102444.03;;;1.24;70.99
50684;BME280;36654;45.042;38.994;2023-01-25T08:59:03;102439.75;;;1.36;70.54
50684;BME280;36654;45.042;38.994;2023-01-25T09:01:30;102429.75;;;1.42;70.41
50684;BME280;36654;45.042;38.994;2023-01-25T09:03:55;102435.88;;;1.55;70.05
50684;BME280;36654;45.042;38.994;2023-01-25T09:06:21;102436.03;;;1.68;70.03
50684;BME280;36654;45.042;38.994;2023-01-25T09:08:47;102427.03;;;1.76;69.70
50684;BME280;36654;45.042;38.994;2023-01-25T09:11:16;102421.13;;;1.79;69.32
50684;BME280;36654;45.042;38.994;2023-01-25T09:13:42;102431.78;;;1.93;69.28
50684;BME280;36654;45.042;38.994;2023-01-25T09:16:13;102376.31;;;1.74;69.24
50684;BME280;36654;45.042;38.994;2023-01-25T09:18:40;102426.75;;;2.20;69.21
50684;BME280;36654;45.042;38.994;2023-01-25T09:21:13;102425.78;;;2.31;69.10
50684;BME280;36654;45.042;38.994;2023-01-25T09:23:39;102429.06;;;2.41;68.51
50684;BME280;36654;45.042;38.994;2023-01-25T09:26:05;102426.66;;;2.44;68.54
50684;BME280;36654;45.042;38.994;2023-01-25T09:28:32;102420.06;;;2.49;68.21
50684;BME280;36654;45.042;38.994;2023-01-25T09:31:03;102418.66;;;2.54;68.25
50684;BME280;36654;45.042;38.994;2023-01-25T09:33:35;102418.19;;;2.59;67.96
50684;BME280;36654;45.042;38.994;2023-01-25T09:36:02;102417.50;;;2.62;68.11
50684;BME280;36654;45.042;38.994;2023-01-25T09:38:28;102411.47;;;2.63;67.61
50684;BME280;36654;45.042;38.994;2023-01-25T09:44:15;102404.19;;;2.59;67.61
50684;BME280;36654;45.042;38.994;2023-01-25T09:46:48;102401.94;;;2.52;67.78
50684;BME280;36654;45.042;38.994;2023-01-25T09:49:18;102395.72;;;2.50;67.90
50684;BME280;36654;45.042;38.994;2023-01-25T09:54:39;102393.81;;;2.35;68.15
50684;BME280;36654;45.042;38.994;2023-01-25T09:57:20;102404.69;;;2.42;68.20
50684;BME280;36654;45.042;38.994;2023-01-25T09:59:50;102399.13;;;2.37;68.50
50684;BME280;36654;45.042;38.994;2023-01-25T10:05:15;102382.75;;;2.40;68.63
50684;BME280;36654;45.042;38.994;2023-01-25T10:08:00;102386.00;;;2.49;68.53
50684;BME280;36654;45.042;38.994;2023-01-25T10:10:38;102374.97;;;2.53;68.29
50684;BME280;36654;45.042;38.994;2023-01-25T10:13:10;102366.28;;;2.54;68.27
50684;BME280;36654;45.042;38.994;2023-01-25T10:15:42;102370.25;;;2.61;68.17
50684;BME280;36654;45.042;38.994;2023-01-25T10:20:58;102380.69;;;2.72;68.17
50684;BME280;36654;45.042;38.994;2023-01-25T10:26:07;102377.06;;;2.84;67.99
50684;BME280;36654;45.042;38.994;2023-01-25T10:29:30;102362.97;;;2.81;67.85
50684;BME280;36654;45.042;38.994;2023-01-25T10:31:49;102335.22;;;2.72;67.73
50684;BME280;36654;45.042;38.994;2023-01-25T10:34:31;102307.91;;;2.55;67.62
50684;BME280;36654;45.042;38.994;2023-01-25T10:37:02;102355.91;;;2.80;67.74
50684;BME280;36654;45.042;38.994;2023-01-25T10:39:29;102362.38;;;2.86;67.90
50684;BME280;36654;45.042;38.994;2023-01-25T10:42:00;102361.78;;;2.90;67.76
50684;BME280;36654;45.042;38.994;2023-01-25T10:44:32;102352.09;;;2.89;67.73
50684;BME280;36654;45.042;38.994;2023-01-25T10:47:24;102350.13;;;2.98;67.82
50684;BME280;36654;45.042;38.994;2023-01-25T10:49:55;102353.75;;;3.00;67.67
50684;BME280;36654;45.042;38.994;2023-01-25T10:52:24;102348.50;;;3.00;67.59
50684;BME280;36654;45.042;38.994;2023-01-25T10:57:47;102348.91;;;3.06;67.75
50684;BME280;36654;45.042;38.994;2023-01-25T11:00:36;102347.50;;;3.11;67.37
50684;BME280;36654;45.042;38.994;2023-01-25T11:03:03;102296.31;;;2.90;67.45
50684;BME280;36654;45.042;38.994;2023-01-25T11:08:51;102347.44;;;3.23;67.30
50684;BME280;36654;45.042;38.994;2023-01-25T11:11:33;102343.28;;;3.27;67.23
50684;BME280;36654;45.042;38.994;2023-01-25T11:13:59;102336.53;;;3.30;67.25
50684;BME280;36654;45.042;38.994;2023-01-25T11:16:29;102340.06;;;3.31;67.19
50684;BME280;36654;45.042;38.994;2023-01-25T11:18:56;102337.75;;;3.35;67.04
50684;BME280;36654;45.042;38.994;2023-01-25T11:21:25;102347.84;;;3.42;67.11
50684;BME280;36654;45.042;38.994;2023-01-25T11:26:24;102335.03;;;3.47;66.90
50684;BME280;36654;45.042;38.994;2023-01-25T11:28:49;102346.31;;;3.46;66.75
50684;BME280;36654;45.042;38.994;2023-01-25T11:31:21;102330.59;;;3.46;66.66
50684;BME280;36654;45.042;38.994;2023-01-25T11:33:46;102338.56;;;3.48;66.54
50684;BME280;36654;45.042;38.994;2023-01-25T11:36:20;102339.47;;;3.48;66.29
50684;BME280;36654;45.042;38.994;2023-01-25T11:39:01;102333.63;;;3.52;66.37
50684;BME280;36654;45.042;38.994;2023-01-25T11:44:38;102336.44;;;3.55;
50684;BME280;36654;45.042;38.994;2023-01-25T12:06:24;102336.00;;;3.76;65.73
50684;BME280;36654;45.042;38.994;2023-01-25T12:11:59;102335.63;;;3.70;65.78
50684;BME280;36654;45.042;38.994;2023-01-25T12:26:28;102336.00;;;3.76;65.98
50684;BME280;36654;45.042;38.994;2023-01-25T12:31:52;102336.59;;;3.72;65.99
50684;BME280;36654;45.042;38.994;2023-01-25T12:34:26;102340.53;;;3.78;66.06
50684;BME280;36654;45.042;38.994;2023-01-25T12:36:57;102330.03;;;3.78;65.99
50684;BME280;36654;45.042;38.994;2023-01-25T12:39:33;102337.19;;;3.81;66.14
50684;BME280;36654;45.042;38.994;2023-01-25T12:44:51;102338.75;;;3.77;66.17
50684;BME280;36654;45.042;38.994;2023-01-25T12:47:45;102336.19;;;3.79;66.45
50684;BME280;36654;45.042;38.994;2023-01-25T12:50:22;102343.97;;;3.77;66.35
50684;BME280;36654;45.042;38.994;2023-01-25T12:52:56;102332.19;;;3.71;66.50
50684;BME280;36654;45.042;38.994;2023-01-25T12:55:22;102324.91;;;3.66;66.64
50684;BME280;36654;45.042;38.994;2023-01-25T13:06:45;102332.97;;;3.83;66.60
50684;BME280;36654;45.042;38.994;2023-01-25T13:11:54;102281.25;;;3.54;66.67
50684;BME280;36654;45.042;38.994;2023-01-25T13:14:27;102345.25;;;3.84;66.54
50684;BME280;36654;45.042;38.994;2023-01-25T13:16:54;102346.88;;;3.82;66.64
50684;BME280;36654;45.042;38.994;2023-01-25T13:21:59;102341.63;;;3.82;66.58
50684;BME280;36654;45.042;38.994;2023-01-25T13:24:33;102334.75;;;3.84;66.49
50684;BME280;36654;45.042;38.994;2023-01-25T13:27:02;102340.94;;;3.84;66.55
50684;BME280;36654;45.042;38.994;2023-01-25T13:37:16;102328.72;;;3.85;66.73
50684;BME280;36654;45.042;38.994;2023-01-25T13:44:54;102323.19;;;3.80;66.82
50684;BME280;36654;45.042;38.994;2023-01-25T13:47:28;102308.38;;;3.67;67.13
50684;BME280;36654;45.042;38.994;2023-01-25T13:52:26;102316.25;;;3.67;67.23
50684;BME280;36654;45.042;38.994;2023-01-25T13:54:55;102323.50;;;3.72;67.25
50684;BME280;36654;45.042;38.994;2023-01-25T13:57:29;102310.81;;;3.64;67.32
50684;BME280;36654;45.042;38.994;2023-01-25T14:02:26;102312.44;;;3.62;67.60
50684;BME280;36654;45.042;38.994;2023-01-25T14:04:51;102320.06;;;3.59;67.61
50684;BME280;36654;45.042;38.994;2023-01-25T14:07:20;102320.59;;;3.54;67.78
50684;BME280;36654;45.042;38.994;2023-01-25T14:09:47;102317.47;;;3.46;68.09
50684;BME280;36654;45.042;38.994;2023-01-25T14:12:27;102316.66;;;3.34;68.26
50684;BME280;36654;45.042;38.994;2023-01-25T14:14:55;102320.50;;;3.26;68.71
50684;BME280;36654;45.042;38.994;2023-01-25T14:17:22;102264.06;;;2.91;68.85
50684;BME280;36654;45.042;38.994;2023-01-25T14:19:54;102321.28;;;3.11;69.12
50684;BME280;36654;45.042;38.994;2023-01-25T14:22:30;102318.28;;;3.05;69.51
50684;BME280;36654;45.042;38.994;2023-01-25T14:27:34;102313.44;;;2.85;70.12
50684;BME280;36654;45.042;38.994;2023-01-25T14:30:01;102323.66;;;2.81;70.53
50684;BME280;36654;45.042;38.994;2023-01-25T14:32:27;102277.09;;;2.51;70.70
50684;BME280;36654;45.042;38.994;2023-01-25T14:34:53;102327.28;;;2.70;71.08
50684;BME280;36654;45.042;38.994;2023-01-25T14:37:20;102319.59;;;2.60;71.31
50684;BME280;36654;45.042;38.994;2023-01-25T14:39:48;102333.47;;;2.59;71.40
50684;BME280;36654;45.042;38.994;2023-01-25T14:42:16;102331.34;;;2.53;71.60